createdAt,value
2023-02-09T00:00:38.268Z,97661.50
2023-02-09T00:03:11.210Z,97663.31
2023-02-09T00:05:44.741Z,97665.38
2023-02-09T00:08:17.866Z,97660.13
2023-02-09T00:10:50.769Z,97661.75
2023-02-09T00:13:22.978Z,97664.38
2023-02-09T00:16:01.621Z,97662.75
2023-02-09T00:18:35.112Z,97658.31
2023-02-09T00:21:10.827Z,97651.69
2023-02-09T00:23:43.818Z,97653.50
2023-02-09T00:26:16.958Z,97652.69
2023-02-09T00:28:49.760Z,97668.63
2023-02-09T00:31:24.285Z,97659.16
2023-02-09T00:33:57.688Z,97668.25
2023-02-09T00:36:31.062Z,97673.69
2023-02-09T00:39:04.543Z,97670.47
2023-02-09T00:41:55.205Z,97663.03
2023-02-09T00:44:28.051Z,97656.97
2023-02-09T00:47:02.687Z,97657.22
2023-02-09T00:49:35.863Z,97651.59
2023-02-09T00:52:10.106Z,97652.59
2023-02-09T00:54:43.316Z,97657.84
2023-02-09T00:57:16.238Z,97649.63
2023-02-09T00:59:49.119Z,97651.03
2023-02-09T01:02:23.409Z,97648.41
2023-02-09T01:04:56.351Z,97645.41
2023-02-09T01:07:29.479Z,97649.25
2023-02-09T01:10:03.058Z,97651.28
2023-02-09T01:12:36.054Z,97645.44
2023-02-09T01:15:10.795Z,97652.69
2023-02-09T01:17:45.140Z,97650.31
2023-02-09T01:20:18.499Z,97642.06
2023-02-09T01:22:51.661Z,97641.25
2023-02-09T01:25:24.572Z,97648.09
2023-02-09T01:27:57.761Z,97643.06
2023-02-09T01:30:30.768Z,97641.25
2023-02-09T01:33:05.169Z,97647.28
2023-02-09T01:35:37.991Z,97644.28
2023-02-09T01:38:10.974Z,97633.81
2023-02-09T01:40:48.584Z,97636.84
2023-02-09T01:43:21.704Z,97641.66
2023-02-09T01:45:55.680Z,97637.25
2023-02-09T01:48:32.312Z,97634.63
2023-02-09T01:51:05.537Z,97633.00
2023-02-09T01:53:38.530Z,97617.53
2023-02-09T01:56:15.758Z,97627.00
2023-02-09T01:58:49.571Z,97627.22
2023-02-09T02:01:23.424Z,97625.41
2023-02-09T02:03:58.230Z,97628.00
2023-02-09T02:06:32.045Z,97625.59
2023-02-09T02:09:10.064Z,97619.56
2023-02-09T02:11:46.346Z,97627.22
2023-02-09T02:14:37.997Z,97627.22
2023-02-09T02:17:21.087Z,97636.88
2023-02-09T02:20:28.592Z,97630.03
2023-02-09T02:23:10.264Z,97626.59
2023-02-09T02:26:10.455Z,97631.03
2023-02-09T02:29:15.854Z,97626.59
2023-02-09T02:32:10.345Z,97622.38
2023-02-09T02:34:48.354Z,97625.19
2023-02-09T02:37:33.534Z,97620.97
2023-02-09T02:40:18.974Z,97620.41
2023-02-09T02:42:56.729Z,97616.59
2023-02-09T02:45:37.316Z,97619.41
2023-02-09T02:48:25.164Z,97609.94
2023-02-09T02:51:04.603Z,97598.09
2023-02-09T02:53:40.880Z,97599.31
2023-02-09T02:56:18.213Z,97599.31
2023-02-09T02:58:54.118Z,97614.22
2023-02-09T03:01:35.306Z,97607.16
2023-02-09T03:04:11.047Z,97610.00
2023-02-09T03:06:43.997Z,97598.34
2023-02-09T03:09:18.945Z,97607.78
2023-02-09T03:11:58.711Z,97613.00
2023-02-09T03:14:43.823Z,97618.84
2023-02-09T03:17:28.541Z,97620.66
2023-02-09T03:20:09.428Z,97613.00
2023-02-09T03:22:47.757Z,97622.69
2023-02-09T03:25:25.348Z,97619.47
2023-02-09T03:28:02.067Z,97623.69
2023-02-09T03:30:36.821Z,97619.69
2023-02-09T03:33:20.941Z,97612.84
2023-02-09T03:35:57.970Z,97619.28
2023-02-09T03:38:30.865Z,97610.06
2023-02-09T03:41:03.812Z,97617.09
2023-02-09T03:43:54.226Z,97618.09
2023-02-09T03:46:27.334Z,97619.72
2023-02-09T03:49:00.262Z,97616.50
2023-02-09T03:51:34.934Z,97618.09
2023-02-09T03:54:07.913Z,97615.88
2023-02-09T03:56:40.803Z,97616.91
2023-02-09T03:59:13.669Z,97614.47
2023-02-09T04:01:46.581Z,97612.09
2023-02-09T04:04:19.808Z,97616.31
2023-02-09T04:06:54.420Z,97613.72
2023-02-09T04:09:28.136Z,97613.91
2023-02-09T04:12:01.124Z,97624.56
2023-02-09T04:14:33.959Z,97615.13
2023-02-09T04:17:06.869Z,97629.78
2023-02-09T04:19:39.871Z,97633.63
2023-02-09T04:22:14.133Z,97631.00
2023-02-09T04:24:46.994Z,97644.28
2023-02-09T04:27:20.062Z,97641.66
2023-02-09T04:29:52.934Z,97652.31
2023-02-09T04:32:25.828Z,97648.94
2023-02-09T04:34:58.748Z,97649.94
2023-02-09T04:37:33.049Z,97650.94
2023-02-09T04:40:07.859Z,97649.53
2023-02-09T04:42:40.828Z,97649.72
2023-02-09T04:45:13.696Z,97652.53
2023-02-09T04:47:46.593Z,97652.75
2023-02-09T04:50:19.672Z,97656.38
2023-02-09T04:52:53.919Z,97660.59
2023-02-09T04:55:26.941Z,97661.81
2023-02-09T04:58:17.315Z,97659.00
2023-02-09T05:00:50.258Z,97656.59
2023-02-09T05:03:24.711Z,97652.34
2023-02-09T05:05:58.996Z,97650.34
2023-02-09T05:08:33.916Z,97653.78
2023-02-09T05:11:07.145Z,97651.56
2023-02-09T05:13:40.462Z,97654.97
2023-02-09T05:16:17.755Z,97652.34
2023-02-09T05:18:51.414Z,97649.94
2023-02-09T05:21:24.281Z,97655.97
2023-02-09T05:23:58.703Z,97669.03
2023-02-09T05:26:31.609Z,97663.00
2023-02-09T05:29:04.958Z,97663.22
2023-02-09T05:31:37.897Z,97661.41
2023-02-09T05:34:10.827Z,97659.00
2023-02-09T05:36:43.688Z,97660.22
2023-02-09T05:39:18.170Z,97667.63
2023-02-09T05:42:08.913Z,97674.91
2023-02-09T05:44:42.027Z,97667.06
2023-02-09T05:47:16.788Z,97662.03
2023-02-09T05:49:49.791Z,97663.84
2023-02-09T05:52:23.084Z,97662.84
2023-02-09T05:54:57.502Z,97656.81
2023-02-09T05:57:30.479Z,97663.22
2023-02-09T06:00:04.105Z,97666.66
2023-02-09T06:02:37.019Z,97679.50
2023-02-09T06:05:10.038Z,97675.50
2023-02-09T06:07:42.917Z,97670.25
2023-02-09T06:10:17.400Z,97672.88
2023-02-09T06:12:50.292Z,97673.06
2023-02-09T06:15:23.314Z,97672.06
2023-02-09T06:17:56.178Z,97673.31
2023-02-09T06:20:29.118Z,97669.06
2023-02-09T06:23:02.447Z,97676.13
2023-02-09T06:25:39.555Z,97683.94
2023-02-09T06:28:12.972Z,97682.53
2023-02-09T06:30:46.160Z,97693.00
2023-02-09T06:33:19.717Z,97688.56
2023-02-09T06:35:52.680Z,97679.94
2023-02-09T06:38:25.610Z,97674.91
2023-02-09T06:41:00.039Z,97681.53
2023-02-09T06:43:33.372Z,97685.97
2023-02-09T06:46:07.901Z,97685.16
2023-02-09T06:48:41.086Z,97682.34
2023-02-09T06:51:15.597Z,97683.94
2023-02-09T06:53:48.629Z,97690.19
2023-02-09T06:56:23.536Z,97701.44
2023-02-09T06:58:56.875Z,97697.03
2023-02-09T07:01:29.826Z,97694.41
2023-02-09T07:04:02.735Z,97698.41
2023-02-09T07:06:35.690Z,97693.59
2023-02-09T07:09:08.853Z,97704.44
2023-02-09T07:11:43.858Z,97695.59
2023-02-09T07:14:16.802Z,97701.44
2023-02-09T07:16:49.662Z,97708.47
2023-02-09T07:19:22.577Z,97705.44
2023-02-09T07:21:55.448Z,97705.25
2023-02-09T07:24:28.835Z,97705.63
2023-02-09T07:27:03.153Z,97701.63
2023-02-09T07:29:36.177Z,97710.66
2023-02-09T07:32:09.225Z,97710.63
2023-02-09T07:34:42.127Z,97717.06
2023-02-09T07:37:15.040Z,97718.66
2023-02-09T07:39:48.190Z,97720.25
2023-02-09T07:42:23.478Z,97719.22
2023-02-09T07:44:56.406Z,97713.78
2023-02-09T07:47:29.306Z,97727.22
2023-02-09T07:50:02.166Z,97724.38
2023-02-09T07:52:35.051Z,97722.94
2023-02-09T07:55:08.636Z,97721.50
2023-02-09T07:57:42.916Z,97724.69
2023-02-09T08:00:16.936Z,97727.44
2023-02-09T08:02:51.181Z,97727.41
2023-02-09T08:05:31.770Z,97735.19
2023-02-09T08:08:05.160Z,97732.91
2023-02-09T08:10:38.203Z,97738.50
2023-02-09T08:13:14.269Z,97737.84
2023-02-09T08:15:52.189Z,97747.63
2023-02-09T08:18:29.009Z,97751.38
2023-02-09T08:21:01.998Z,97750.91
2023-02-09T08:23:38.424Z,97753.63
2023-02-09T08:26:15.160Z,97753.94
2023-02-09T08:28:49.961Z,97749.81
2023-02-09T08:31:23.317Z,97747.72
2023-02-09T08:33:56.305Z,97749.41
2023-02-09T08:36:29.276Z,97753.38
2023-02-09T08:39:03.230Z,97756.25
2023-02-09T08:41:36.190Z,97754.97
2023-02-09T08:44:10.500Z,97752.41
2023-02-09T08:46:43.543Z,97759.78
2023-02-09T08:49:16.692Z,97770.78
2023-02-09T08:51:49.652Z,97770.28
2023-02-09T08:54:22.552Z,97755.81
2023-02-09T08:56:55.544Z,97762.97
2023-02-09T08:59:30.261Z,97752.94
2023-02-09T09:02:03.168Z,97763.69
2023-02-09T09:04:36.294Z,97760.75
2023-02-09T09:07:09.177Z,97755.97
2023-02-09T09:09:42.223Z,97756.22
2023-02-09T09:12:15.168Z,97757.50
2023-02-09T09:14:49.564Z,97761.78
2023-02-09T09:17:22.590Z,97758.00
2023-02-09T09:19:56.440Z,97756.63
2023-02-09T09:22:29.321Z,97756.09
2023-02-09T09:25:02.209Z,97753.31
2023-02-09T09:27:36.172Z,97758.25
2023-02-09T09:30:11.855Z,97755.84
2023-02-09T09:32:44.773Z,97751.25
2023-02-09T09:35:17.851Z,97753.53
2023-02-09T09:37:50.841Z,97755.00
2023-02-09T09:40:28.006Z,97758.88
2023-02-09T09:43:04.105Z,97756.94
2023-02-09T09:45:40.601Z,97762.63
2023-02-09T09:48:24.003Z,97760.66
2023-02-09T09:50:59.977Z,97753.69
2023-02-09T09:53:36.535Z,97761.78
2023-02-09T09:56:10.530Z,97754.19
2023-02-09T09:58:45.501Z,97752.00
2023-02-09T10:01:21.637Z,97760.31
2023-02-09T10:03:54.627Z,97752.53
2023-02-09T10:06:33.890Z,97758.00
2023-02-09T10:09:15.810Z,97760.69
2023-02-09T10:11:54.745Z,97762.97
2023-02-09T10:14:27.633Z,97763.03
2023-02-09T10:17:02.044Z,97762.41
2023-02-09T10:19:34.961Z,97763.06
2023-02-09T10:22:14.015Z,97757.13
2023-02-09T10:24:46.874Z,97758.03
2023-02-09T10:27:27.277Z,97765.56
2023-02-09T10:30:19.416Z,97760.91
2023-02-09T10:32:54.498Z,97759.72
2023-02-09T10:35:29.545Z,97757.69
2023-02-09T10:38:04.099Z,97760.44
2023-02-09T10:40:41.278Z,97757.91
2023-02-09T10:43:22.466Z,97760.16
2023-02-09T10:45:57.515Z,97756.56
2023-02-09T10:48:42.050Z,97749.81
2023-02-09T10:51:16.665Z,97749.38
2023-02-09T10:54:02.378Z,97745.28
2023-02-09T10:56:44.732Z,97747.47
2023-02-09T10:59:19.552Z,97749.13
2023-02-09T11:01:57.898Z,97742.38
2023-02-09T11:04:40.795Z,97741.94
2023-02-09T11:07:19.080Z,97734.34
2023-02-09T11:09:53.315Z,97730.22
2023-02-09T11:12:28.607Z,97724.47
2023-02-09T11:15:02.814Z,97725.06
2023-02-09T11:17:40.178Z,97725.19
2023-02-09T11:20:24.416Z,97720.78
2023-02-09T11:23:22.501Z,97729.88
2023-02-09T11:26:01.672Z,97716.16
2023-02-09T11:28:43.724Z,97713.53
2023-02-09T11:31:50.295Z,97714.97
2023-02-09T11:34:39.080Z,97708.16
2023-02-09T11:37:25.558Z,97710.63
2023-02-09T11:40:07.815Z,97710.16
2023-02-09T11:42:47.754Z,97700.38
2023-02-09T11:45:28.653Z,97699.09
2023-02-09T11:48:11.990Z,97697.88
2023-02-09T11:51:00.236Z,97697.13
2023-02-09T11:53:54.867Z,97700.63
2023-02-09T11:56:29.474Z,97691.63
2023-02-09T11:59:10.051Z,97683.97
2023-02-09T12:01:48.636Z,97675.75
2023-02-09T12:04:28.297Z,97683.22
2023-02-09T12:07:04.423Z,97684.84
2023-02-09T12:09:48.228Z,97679.00
2023-02-09T12:12:28.969Z,97672.91
2023-02-09T12:15:12.642Z,97674.78
2023-02-09T12:17:51.187Z,97671.59
2023-02-09T12:20:30.748Z,97670.81
2023-02-09T12:23:08.076Z,97662.31
2023-02-09T12:26:02.524Z,97654.38
2023-02-09T12:28:42.440Z,97651.16
2023-02-09T12:31:27.062Z,97655.69
2023-02-09T12:34:29.707Z,97647.19
2023-02-09T12:37:20.041Z,97649.06
2023-02-09T12:40:24.986Z,97642.94
2023-02-09T12:43:30.045Z,97640.00
2023-02-09T12:46:21.759Z,97643.47
2023-02-09T12:49:10.163Z,97636.81
2023-02-09T12:51:51.210Z,97633.91
2023-02-09T12:54:33.601Z,97629.66
2023-02-09T12:57:40.017Z,97622.72
2023-02-09T13:00:34.223Z,97623.00
2023-02-09T13:03:13.708Z,97615.03
2023-02-09T13:05:49.031Z,97618.50
2023-02-09T13:08:49.629Z,97622.72
2023-02-09T13:11:34.136Z,97619.81
2023-02-09T13:14:10.430Z,97628.31
2023-02-09T13:17:07.347Z,97621.63
2023-02-09T13:19:58.864Z,97628.03
2023-02-09T13:22:40.592Z,97619.78
2023-02-09T13:25:21.702Z,97623.47
2023-02-09T13:27:54.775Z,97612.84
2023-02-09T13:30:29.903Z,97619.50
2023-02-09T13:33:17.751Z,97617.88
2023-02-09T13:36:08.871Z,97609.63
2023-02-09T13:38:44.464Z,97610.44
2023-02-09T13:41:31.036Z,97609.09
2023-02-09T13:44:04.091Z,97613.63
2023-02-09T13:46:37.005Z,97614.41
2023-02-09T13:49:19.340Z,97619.75
2023-02-09T13:52:15.498Z,97616.03
2023-02-09T13:54:48.502Z,97611.75
2023-02-09T13:57:31.849Z,97611.22
2023-02-09T14:00:17.687Z,97610.13
2023-02-09T14:02:54.501Z,97607.78
2023-02-09T14:05:35.140Z,97612.03
2023-02-09T14:08:09.840Z,97613.91
2023-02-09T14:10:45.552Z,97600.88
2023-02-09T14:13:22.484Z,97601.66
2023-02-09T14:16:08.682Z,97598.22
2023-02-09T14:18:49.452Z,97598.75
2023-02-09T14:21:29.808Z,97597.16
2023-02-09T14:24:24.640Z,97608.28
2023-02-09T14:27:04.761Z,97609.06
2023-02-09T14:29:39.048Z,97608.81
2023-02-09T14:32:32.314Z,97610.41
2023-02-09T14:35:19.409Z,97606.69
2023-02-09T14:37:55.544Z,97618.91
2023-02-09T14:40:34.150Z,97622.38
2023-02-09T14:43:24.840Z,97622.09
2023-02-09T14:46:01.104Z,97625.81
2023-02-09T14:48:34.107Z,97621.56
2023-02-09T14:51:14.674Z,97621.56
2023-02-09T14:53:49.033Z,97625.03
2023-02-09T14:56:28.470Z,97621.56
2023-02-09T14:59:01.384Z,97619.44
2023-02-09T15:01:34.303Z,97613.91
2023-02-09T15:04:07.184Z,97619.22
2023-02-09T15:06:40.444Z,97621.34
2023-02-09T15:09:22.092Z,97625.59
2023-02-09T15:12:07.207Z,97621.88
2023-02-09T15:14:44.013Z,97633.28
2023-02-09T15:17:19.157Z,97640.22
2023-02-09T15:19:52.709Z,97642.09
2023-02-09T15:22:25.961Z,97646.88
2023-02-09T15:25:00.349Z,97651.38
2023-02-09T15:27:36.040Z,97647.41
2023-02-09T15:30:15.558Z,97647.41
2023-02-09T15:32:48.591Z,97655.94
2023-02-09T15:35:23.534Z,97661.50
2023-02-09T15:37:59.568Z,97663.88
2023-02-09T15:40:54.534Z,97666.81
2023-02-09T15:43:45.142Z,97660.19
2023-02-09T15:46:36.017Z,97659.91
2023-02-09T15:49:08.972Z,97670.00
2023-02-09T15:51:42.564Z,97675.06
2023-02-09T15:54:18.764Z,97669.47
2023-02-09T15:56:55.025Z,97674.25
2023-02-09T15:59:28.207Z,97673.47
2023-02-09T16:02:01.213Z,97675.59
2023-02-09T16:04:34.176Z,97674.81
2023-02-09T16:07:08.253Z,97682.00
2023-02-09T16:09:43.848Z,97690.47
2023-02-09T16:12:18.245Z,97683.03
2023-02-09T16:14:53.169Z,97683.81
2023-02-09T16:17:26.285Z,97682.22
2023-02-09T16:19:59.114Z,97683.81
2023-02-09T16:22:32.283Z,97685.41
2023-02-09T16:25:05.459Z,97682.19
2023-02-09T16:27:40.817Z,97685.88
2023-02-09T16:30:18.465Z,97689.06
2023-02-09T16:32:51.991Z,97692.47
2023-02-09T16:35:25.977Z,97692.97
2023-02-09T16:37:59.324Z,97700.38
2023-02-09T16:40:34.387Z,97694.25
2023-02-09T16:43:11.746Z,97693.94
2023-02-09T16:46:00.990Z,97706.63
2023-02-09T16:48:35.639Z,97721.88
2023-02-09T16:51:13.609Z,97708.81
2023-02-09T16:53:51.492Z,97719.34
2023-02-09T16:56:25.951Z,97734.66
2023-02-09T16:59:00.669Z,97739.63
2023-02-09T17:01:34.434Z,97737.38
2023-02-09T17:04:09.588Z,97734.38
2023-02-09T17:06:42.710Z,97737.75
2023-02-09T17:09:17.157Z,97741.66
2023-02-09T17:11:50.043Z,97741.81
2023-02-09T17:14:24.324Z,97744.91
2023-02-09T17:16:57.356Z,97744.56
2023-02-09T17:19:42.158Z,97743.16
2023-02-09T17:22:20.414Z,97743.03
2023-02-09T17:24:53.316Z,97745.31
2023-02-09T17:27:26.237Z,97746.56
2023-02-09T17:30:00.642Z,97745.94
2023-02-09T17:32:33.555Z,97748.47
2023-02-09T17:35:14.440Z,97753.44
2023-02-09T17:37:48.211Z,97743.53
2023-02-09T17:40:23.581Z,97753.00
2023-02-09T17:42:57.107Z,97754.47
2023-02-09T17:45:35.057Z,97756.47
2023-02-09T17:48:10.423Z,97759.03
2023-02-09T17:50:45.185Z,97759.69
2023-02-09T17:53:20.846Z,97771.53
2023-02-09T17:55:56.412Z,97766.41
2023-02-09T17:58:29.698Z,97773.47
2023-02-09T18:01:21.575Z,97771.06
2023-02-09T18:03:54.670Z,97774.69
2023-02-09T18:06:33.712Z,97781.25
2023-02-09T18:09:09.107Z,97779.06
2023-02-09T18:11:57.593Z,97782.22
2023-02-09T18:14:32.457Z,97781.06
2023-02-09T18:17:07.046Z,97788.19
2023-02-09T18:19:40.166Z,97788.69
2023-02-09T18:22:17.067Z,97791.78
2023-02-09T18:24:50.965Z,97791.47
2023-02-09T18:27:25.580Z,97806.19
2023-02-09T18:29:58.600Z,97799.88
2023-02-09T18:32:33.009Z,97800.34
2023-02-09T18:35:06.618Z,97799.53
2023-02-09T18:37:39.548Z,97802.97
2023-02-09T18:40:12.619Z,97806.66
2023-02-09T18:42:46.616Z,97804.81
2023-02-09T18:45:21.337Z,97804.00
2023-02-09T18:47:55.679Z,97804.00
2023-02-09T18:50:30.904Z,97800.00
2023-02-09T18:53:04.553Z,97802.91
2023-02-09T18:55:37.468Z,97807.59
2023-02-09T18:58:10.421Z,97811.28
2023-02-09T19:00:43.260Z,97819.44
2023-02-09T19:03:20.101Z,97817.59
2023-02-09T19:05:53.026Z,97827.56
2023-02-09T19:08:26.152Z,97829.66
2023-02-09T19:10:59.045Z,97830.94
2023-02-09T19:13:34.092Z,97834.84
2023-02-09T19:16:11.582Z,97847.22
2023-02-09T19:18:46.517Z,97845.88
2023-02-09T19:21:20.384Z,97846.34
2023-02-09T19:23:54.469Z,97844.97
2023-02-09T19:26:27.385Z,97848.88
2023-02-09T19:29:00.263Z,97850.38
2023-02-09T19:31:33.223Z,97854.50
2023-02-09T19:34:07.654Z,97843.66
2023-02-09T19:36:40.560Z,97846.16
2023-02-09T19:39:14.064Z,97851.94
2023-02-09T19:41:49.090Z,97852.38
2023-02-09T19:44:23.599Z,97854.94
2023-02-09T19:46:56.455Z,97860.44
2023-02-09T19:49:34.213Z,97858.25
2023-02-09T19:52:07.538Z,97853.69
2023-02-09T19:54:40.489Z,97861.25
2023-02-09T19:57:13.684Z,97861.16
2023-02-09T19:59:47.006Z,97867.09
2023-02-09T20:02:19.910Z,97867.81
2023-02-09T20:04:54.196Z,97870.66
2023-02-09T20:07:27.096Z,97873.44
2023-02-09T20:10:00.146Z,97883.03
2023-02-09T20:12:33.365Z,97888.56
2023-02-09T20:15:06.745Z,97891.28
2023-02-09T20:17:39.657Z,97899.66
2023-02-09T20:20:14.423Z,97893.81
2023-02-09T20:22:49.333Z,97894.28
2023-02-09T20:25:22.324Z,97898.94
2023-02-09T20:27:55.621Z,97897.03
2023-02-09T20:30:28.713Z,97904.34
2023-02-09T20:33:01.641Z,97901.72
2023-02-09T20:35:36.195Z,97904.34
2023-02-09T20:38:09.666Z,97909.03
2023-02-09T20:40:43.594Z,97906.88
2023-02-09T20:43:34.215Z,97905.25
2023-02-09T20:46:25.279Z,97905.69
2023-02-09T20:48:58.159Z,97910.16
2023-02-09T20:51:32.519Z,97907.31
2023-02-09T20:54:06.013Z,97911.19
2023-02-09T20:56:39.082Z,97903.53
2023-02-09T20:59:13.323Z,97908.56
2023-02-09T21:01:46.525Z,97916.72
2023-02-09T21:04:19.660Z,97920.94
2023-02-09T21:06:54.333Z,97917.72
2023-02-09T21:09:28.349Z,97919.34
2023-02-09T21:12:01.358Z,97924.59
2023-02-09T21:14:42.070Z,97926.44
2023-02-09T21:17:15.922Z,97936.97
2023-02-09T21:19:48.835Z,97925.63
2023-02-09T21:22:23.416Z,97929.06
2023-02-09T21:24:56.375Z,97926.66
2023-02-09T21:27:29.326Z,97924.25
2023-02-09T21:30:02.304Z,97932.94
2023-02-09T21:32:35.375Z,97927.69
2023-02-09T21:35:10.388Z,97937.19
2023-02-09T21:37:44.836Z,97941.44
2023-02-09T21:40:20.370Z,97939.25
2023-02-09T21:42:53.627Z,97942.69
2023-02-09T21:45:26.565Z,97946.81
2023-02-09T21:48:00.753Z,97939.94
2023-02-09T21:50:34.387Z,97935.91
2023-02-09T21:53:08.733Z,97935.31
2023-02-09T21:55:41.672Z,97935.78
2023-02-09T21:58:14.964Z,97938.06
2023-02-09T22:00:48.249Z,97946.97
2023-02-09T22:03:21.367Z,97938.50
2023-02-09T22:05:57.192Z,97937.34
2023-02-09T22:08:31.823Z,97938.38
2023-02-09T22:11:06.637Z,97944.66
2023-02-09T22:13:39.579Z,97930.72
2023-02-09T22:16:18.638Z,97936.56
2023-02-09T22:18:52.124Z,97937.59
2023-02-09T22:21:25.135Z,97948.69
2023-02-09T22:23:59.362Z,97940.78
2023-02-09T22:26:32.457Z,97958.19
2023-02-09T22:29:05.428Z,97958.75
2023-02-09T22:31:38.416Z,97968.84
2023-02-09T22:34:11.752Z,97960.16
2023-02-09T22:36:48.729Z,97961.97
2023-02-09T22:39:23.458Z,97965.19
2023-02-09T22:41:58.589Z,97959.94
2023-02-09T22:44:32.236Z,97968.41
2023-02-09T22:47:05.277Z,97970.47
2023-02-09T22:49:38.222Z,97972.88
2023-02-09T22:52:11.253Z,97969.66
2023-02-09T22:54:45.718Z,97963.59
2023-02-09T22:57:18.629Z,97971.69
2023-02-09T22:59:51.534Z,97969.28
2023-02-09T23:02:25.243Z,97967.13
2023-02-09T23:04:59.358Z,97977.66
2023-02-09T23:07:32.240Z,97980.28
2023-02-09T23:10:07.150Z,97990.00
2023-02-09T23:12:40.047Z,97985.53
2023-02-09T23:15:13.125Z,97988.41
2023-02-09T23:17:46.080Z,97992.06
2023-02-09T23:20:19.338Z,97998.13
2023-02-09T23:22:54.330Z,98001.78
2023-02-09T23:25:29.264Z,97999.94
2023-02-09T23:28:02.329Z,98005.66
2023-02-09T23:30:35.555Z,98004.03
2023-02-09T23:33:08.390Z,98004.28
2023-02-09T23:35:41.557Z,98009.75
2023-02-09T23:38:14.580Z,98002.53
2023-02-09T23:40:49.041Z,98002.75
2023-02-09T23:43:21.994Z,98004.59
2023-02-09T23:45:55.089Z,98017.16
2023-02-09T23:48:28.126Z,98011.53
2023-02-09T23:51:01.437Z,98012.78
2023-02-09T23:53:35.089Z,98018.28
2023-02-09T23:56:09.705Z,98016.88
2023-02-09T23:58:45.147Z,98018.91
